sensor_id;sensor_type;location;lat;lon;timestamp;P1;durP1;ratioP1;P2;durP2;ratioP2
23155;SDS011;11746;50.876;4.246;2022-12-08T00:01:17;25.33;;;16.20;;
23155;SDS011;11746;50.876;4.246;2022-12-08T00:03:45;25.60;;;16.77;;
23155;SDS011;11746;50.876;4.246;2022-12-08T00:06:18;25.73;;;16.38;;
23155;SDS011;11746;50.876;4.246;2022-12-08T00:09:18;24.05;;;15.13;;
23155;SDS011;11746;50.876;4.246;2022-12-08T00:11:49;25.45;;;16.02;;
23155;SDS011;11746;50.876;4.246;2022-12-08T00:14:22;24.23;;;15.73;;
23155;SDS011;11746;50.876;4.246;2022-12-08T00:16:50;23.33;;;15.52;;
23155;SDS011;11746;50.876;4.246;2022-12-08T00:19:19;27.83;;;16.10;;
23155;SDS011;11746;50.876;4.246;2022-12-08T00:21:46;24.63;;;16.55;;
23155;SDS011;11746;50.876;4.246;2022-12-08T00:24:15;25.67;;;16.52;;
23155;SDS011;11746;50.876;4.246;2022-12-08T00:26:44;24.77;;;17.30;;
23155;SDS011;11746;50.876;4.246;2022-12-08T00:29:10;27.35;;;16.42;;
23155;SDS011;11746;50.876;4.246;2022-12-08T00:31:36;27.83;;;16.75;;
23155;SDS011;11746;50.876;4.246;2022-12-08T00:34:02;29.05;;;17.00;;
23155;SDS011;11746;50.876;4.246;2022-12-08T00:36:31;27.08;;;17.95;;
23155;SDS011;11746;50.876;4.246;2022-12-08T00:38:57;24.88;;;16.55;;
23155;SDS011;11746;50.876;4.246;2022-12-08T00:41:24;24.40;;;16.27;;
23155;SDS011;11746;50.876;4.246;2022-12-08T00:44:10;26.70;;;16.88;;
23155;SDS011;11746;50.876;4.246;2022-12-08T00:46:38;24.42;;;16.42;;
23155;SDS011;11746;50.876;4.246;2022-12-08T00:49:04;25.50;;;16.90;;
23155;SDS011;11746;50.876;4.246;2022-12-08T00:51:31;26.42;;;17.40;;
23155;SDS011;11746;50.876;4.246;2022-12-08T00:53:58;27.02;;;16.77;;
23155;SDS011;11746;50.876;4.246;2022-12-08T00:56:26;27.33;;;17.77;;
23155;SDS011;11746;50.876;4.246;2022-12-08T00:58:54;27.20;;;15.82;;
23155;SDS011;11746;50.876;4.246;2022-12-08T01:01:21;28.48;;;17.48;;
23155;SDS011;11746;50.876;4.246;2022-12-08T01:03:47;27.35;;;17.75;;
23155;SDS011;11746;50.876;4.246;2022-12-08T01:06:14;24.63;;;16.92;;
23155;SDS011;11746;50.876;4.246;2022-12-08T01:08:42;31.60;;;18.92;;
23155;SDS011;11746;50.876;4.246;2022-12-08T01:11:10;26.70;;;18.35;;
23155;SDS011;11746;50.876;4.246;2022-12-08T01:13:39;29.02;;;18.23;;
23155;SDS011;11746;50.876;4.246;2022-12-08T01:16:08;27.98;;;18.38;;
23155;SDS011;11746;50.876;4.246;2022-12-08T01:18:35;30.58;;;19.08;;
23155;SDS011;11746;50.876;4.246;2022-12-08T01:21:02;28.23;;;19.02;;
23155;SDS011;11746;50.876;4.246;2022-12-08T01:23:30;27.13;;;18.48;;
23155;SDS011;11746;50.876;4.246;2022-12-08T01:26:00;31.98;;;20.10;;
23155;SDS011;11746;50.876;4.246;2022-12-08T01:28:26;34.42;;;19.17;;
23155;SDS011;11746;50.876;4.246;2022-12-08T01:30:52;25.23;;;16.77;;
23155;SDS011;11746;50.876;4.246;2022-12-08T01:33:17;29.48;;;18.20;;
23155;SDS011;11746;50.876;4.246;2022-12-08T01:35:43;30.67;;;18.30;;
23155;SDS011;11746;50.876;4.246;2022-12-08T01:38:11;32.28;;;18.63;;
23155;SDS011;11746;50.876;4.246;2022-12-08T01:40:40;26.58;;;17.02;;
23155;SDS011;11746;50.876;4.246;2022-12-08T01:43:07;28.52;;;17.73;;
23155;SDS011;11746;50.876;4.246;2022-12-08T01:45:39;28.02;;;17.35;;
23155;SDS011;11746;50.876;4.246;2022-12-08T01:48:19;27.10;;;17.10;;
23155;SDS011;11746;50.876;4.246;2022-12-08T01:50:50;26.83;;;16.73;;
23155;SDS011;11746;50.876;4.246;2022-12-08T01:53:23;29.33;;;16.95;;
23155;SDS011;11746;50.876;4.246;2022-12-08T01:55:54;27.52;;;16.95;;
23155;SDS011;11746;50.876;4.246;2022-12-08T01:58:26;28.38;;;16.83;;
23155;SDS011;11746;50.876;4.246;2022-12-08T02:00:54;25.85;;;16.92;;
23155;SDS011;11746;50.876;4.246;2022-12-08T02:03:30;29.80;;;17.88;;
23155;SDS011;11746;50.876;4.246;2022-12-08T02:06:02;27.17;;;16.23;;
23155;SDS011;11746;50.876;4.246;2022-12-08T02:08:29;29.83;;;17.10;;
23155;SDS011;11746;50.876;4.246;2022-12-08T02:10:57;26.27;;;17.40;;
23155;SDS011;11746;50.876;4.246;2022-12-08T02:13:23;31.20;;;17.65;;
23155;SDS011;11746;50.876;4.246;2022-12-08T02:18:57;28.75;;;17.08;;
23155;SDS011;11746;50.876;4.246;2022-12-08T02:24:51;35.47;;;19.38;;
23155;SDS011;11746;50.876;4.246;2022-12-08T02:27:35;34.17;;;19.10;;
23155;SDS011;11746;50.876;4.246;2022-12-08T02:38:14;29.23;;;18.13;;
23155;SDS011;11746;50.876;4.246;2022-12-08T02:41:04;30.63;;;18.15;;
23155;SDS011;11746;50.876;4.246;2022-12-08T02:43:56;28.75;;;18.10;;
23155;SDS011;11746;50.876;4.246;2022-12-08T02:46:31;30.13;;;18.08;;
23155;SDS011;11746;50.876;4.246;2022-12-08T02:49:05;31.77;;;18.08;;
23155;SDS011;11746;50.876;4.246;2022-12-08T02:51:31;28.85;;;18.40;;
23155;SDS011;11746;50.876;4.246;2022-12-08T02:53:57;28.75;;;17.50;;
23155;SDS011;11746;50.876;4.246;2022-12-08T03:04:43;28.45;;;17.00;;
23155;SDS011;11746;50.876;4.246;2022-12-08T03:10:10;32.17;;;17.58;;
23155;SDS011;11746;50.876;4.246;2022-12-08T03:12:54;28.40;;;18.15;;
23155;SDS011;11746;50.876;4.246;2022-12-08T03:15:28;30.42;;;18.63;;
23155;SDS011;11746;50.876;4.246;2022-12-08T03:17:56;29.20;;;18.35;;
23155;SDS011;11746;50.876;4.246;2022-12-08T03:20:24;30.42;;;18.02;;
23155;SDS011;11746;50.876;4.246;2022-12-08T03:22:52;32.42;;;18.65;;
23155;SDS011;11746;50.876;4.246;2022-12-08T03:25:26;30.15;;;18.67;;
23155;SDS011;11746;50.876;4.246;2022-12-08T03:27:56;33.38;;;18.92;;
23155;SDS011;11746;50.876;4.246;2022-12-08T03:30:23;31.80;;;18.77;;
23155;SDS011;11746;50.876;4.246;2022-12-08T03:35:29;33.70;;;19.17;;
23155;SDS011;11746;50.876;4.246;2022-12-08T03:38:04;29.10;;;18.88;;
23155;SDS011;11746;50.876;4.246;2022-12-08T03:43:00;28.00;;;17.95;;
23155;SDS011;11746;50.876;4.246;2022-12-08T03:45:29;37.00;;;19.13;;
23155;SDS011;11746;50.876;4.246;2022-12-08T03:47:57;33.15;;;19.65;;
23155;SDS011;11746;50.876;4.246;2022-12-08T03:50:25;32.50;;;20.45;;
23155;SDS011;11746;50.876;4.246;2022-12-08T03:52:51;34.47;;;20.40;;
23155;SDS011;11746;50.876;4.246;2022-12-08T03:55:19;33.05;;;20.40;;
23155;SDS011;11746;50.876;4.246;2022-12-08T03:57:45;35.85;;;19.63;;
23155;SDS011;11746;50.876;4.246;2022-12-08T04:00:15;32.17;;;17.83;;
23155;SDS011;11746;50.876;4.246;2022-12-08T04:02:41;29.55;;;17.77;;
23155;SDS011;11746;50.876;4.246;2022-12-08T04:05:07;31.92;;;18.70;;
23155;SDS011;11746;50.876;4.246;2022-12-08T04:07:35;32.10;;;18.98;;
23155;SDS011;11746;50.876;4.246;2022-12-08T04:10:02;32.42;;;18.50;;
23155;SDS011;11746;50.876;4.246;2022-12-08T04:12:29;33.75;;;18.73;;
23155;SDS011;11746;50.876;4.246;2022-12-08T04:14:55;29.05;;;18.00;;
23155;SDS011;11746;50.876;4.246;2022-12-08T04:17:20;28.73;;;17.63;;
23155;SDS011;11746;50.876;4.246;2022-12-08T04:19:46;32.95;;;17.85;;
23155;SDS011;11746;50.876;4.246;2022-12-08T04:22:12;28.55;;;18.65;;
23155;SDS011;11746;50.876;4.246;2022-12-08T04:24:42;35.28;;;18.58;;
23155;SDS011;11746;50.876;4.246;2022-12-08T04:27:10;36.45;;;20.63;;
23155;SDS011;11746;50.876;4.246;2022-12-08T04:29:36;30.48;;;18.80;;
23155;SDS011;11746;50.876;4.246;2022-12-08T04:32:02;31.02;;;19.73;;
23155;SDS011;11746;50.876;4.246;2022-12-08T04:34:28;36.58;;;19.25;;
23155;SDS011;11746;50.876;4.246;2022-12-08T04:36:56;35.58;;;19.48;;
23155;SDS011;11746;50.876;4.246;2022-12-08T04:39:22;34.60;;;19.00;;
23155;SDS011;11746;50.876;4.246;2022-12-08T04:41:48;31.00;;;19.25;;
23155;SDS011;11746;50.876;4.246;2022-12-08T04:44:16;34.42;;;20.02;;
23155;SDS011;11746;50.876;4.246;2022-12-08T04:46:42;32.70;;;19.10;;
23155;SDS011;11746;50.876;4.246;2022-12-08T04:49:10;34.22;;;18.77;;
23155;SDS011;11746;50.876;4.246;2022-12-08T04:51:36;30.95;;;19.15;;
23155;SDS011;11746;50.876;4.246;2022-12-08T04:54:02;31.67;;;18.27;;
23155;SDS011;11746;50.876;4.246;2022-12-08T04:56:27;33.17;;;18.85;;
23155;SDS011;11746;50.876;4.246;2022-12-08T04:58:55;31.08;;;18.67;;
23155;SDS011;11746;50.876;4.246;2022-12-08T05:01:21;30.83;;;17.88;;
23155;SDS011;11746;50.876;4.246;2022-12-08T05:03:46;32.42;;;19.27;;
23155;SDS011;11746;50.876;4.246;2022-12-08T05:06:15;28.80;;;18.13;;
23155;SDS011;11746;50.876;4.246;2022-12-08T05:08:41;33.30;;;19.42;;
23155;SDS011;11746;50.876;4.246;2022-12-08T05:11:08;31.35;;;18.27;;
23155;SDS011;11746;50.876;4.246;2022-12-08T05:13:37;32.88;;;19.60;;
23155;SDS011;11746;50.876;4.246;2022-12-08T05:16:07;32.33;;;18.58;;
23155;SDS011;11746;50.876;4.246;2022-12-08T05:18:35;31.35;;;18.25;;
23155;SDS011;11746;50.876;4.246;2022-12-08T05:21:01;30.98;;;18.40;;
23155;SDS011;11746;50.876;4.246;2022-12-08T05:23:28;29.70;;;16.38;;
23155;SDS011;11746;50.876;4.246;2022-12-08T05:25:54;30.05;;;17.15;;
23155;SDS011;11746;50.876;4.246;2022-12-08T05:28:21;27.60;;;16.38;;
23155;SDS011;11746;50.876;4.246;2022-12-08T05:30:50;31.33;;;17.45;;
23155;SDS011;11746;50.876;4.246;2022-12-08T05:33:21;28.50;;;16.15;;
23155;SDS011;11746;50.876;4.246;2022-12-08T05:35:50;24.52;;;16.05;;
23155;SDS011;11746;50.876;4.246;2022-12-08T05:38:15;29.63;;;16.15;;
23155;SDS011;11746;50.876;4.246;2022-12-08T05:40:41;26.60;;;15.88;;
23155;SDS011;11746;50.876;4.246;2022-12-08T05:43:08;27.17;;;15.70;;
23155;SDS011;11746;50.876;4.246;2022-12-08T05:45:34;26.27;;;16.08;;
23155;SDS011;11746;50.876;4.246;2022-12-08T05:48:00;29.70;;;16.73;;
23155;SDS011;11746;50.876;4.246;2022-12-08T05:50:26;27.30;;;16.75;;
23155;SDS011;11746;50.876;4.246;2022-12-08T05:52:52;28.83;;;16.90;;
23155;SDS011;11746;50.876;4.246;2022-12-08T05:55:19;27.23;;;15.40;;
23155;SDS011;11746;50.876;4.246;2022-12-08T05:57:47;26.65;;;15.77;;
23155;SDS011;11746;50.876;4.246;2022-12-08T06:00:17;33.33;;;17.08;;
23155;SDS011;11746;50.876;4.246;2022-12-08T06:02:46;27.33;;;15.25;;
23155;SDS011;11746;50.876;4.246;2022-12-08T06:05:12;28.10;;;15.27;;
23155;SDS011;11746;50.876;4.246;2022-12-08T06:07:38;29.80;;;15.27;;
23155;SDS011;11746;50.876;4.246;2022-12-08T06:10:03;26.50;;;14.45;;
23155;SDS011;11746;50.876;4.246;2022-12-08T06:12:30;26.50;;;14.35;;
23155;SDS011;11746;50.876;4.246;2022-12-08T06:14:56;25.92;;;12.90;;
23155;SDS011;11746;50.876;4.246;2022-12-08T06:17:24;20.73;;;12.95;;
23155;SDS011;11746;50.876;4.246;2022-12-08T06:19:52;19.92;;;13.13;;
23155;SDS011;11746;50.876;4.246;2022-12-08T06:22:18;20.92;;;12.63;;
23155;SDS011;11746;50.876;4.246;2022-12-08T06:24:44;21.27;;;13.05;;
23155;SDS011;11746;50.876;4.246;2022-12-08T06:27:10;19.52;;;13.32;;
23155;SDS011;11746;50.876;4.246;2022-12-08T06:29:36;22.15;;;12.52;;
23155;SDS011;11746;50.876;4.246;2022-12-08T06:32:04;19.95;;;12.40;;
23155;SDS011;11746;50.876;4.246;2022-12-08T06:34:30;20.58;;;12.98;;
23155;SDS011;11746;50.876;4.246;2022-12-08T06:36:56;23.52;;;12.32;;
23155;SDS011;11746;50.876;4.246;2022-12-08T06:39:22;22.23;;;11.50;;
23155;SDS011;11746;50.876;4.246;2022-12-08T06:41:48;24.15;;;12.43;;
23155;SDS011;11746;50.876;4.246;2022-12-08T06:44:32;22.27;;;12.25;;
23155;SDS011;11746;50.876;4.246;2022-12-08T06:47:00;19.15;;;12.25;;
23155;SDS011;11746;50.876;4.246;2022-12-08T06:49:26;20.55;;;11.93;;
23155;SDS011;11746;50.876;4.246;2022-12-08T06:51:52;26.13;;;11.65;;
23155;SDS011;11746;50.876;4.246;2022-12-08T06:54:18;18.65;;;11.88;;
23155;SDS011;11746;50.876;4.246;2022-12-08T06:56:44;22.27;;;13.43;;
23155;SDS011;11746;50.876;4.246;2022-12-08T06:59:10;21.52;;;12.93;;
23155;SDS011;11746;50.876;4.246;2022-12-08T07:01:36;22.50;;;12.15;;
23155;SDS011;11746;50.876;4.246;2022-12-08T07:04:02;23.45;;;12.70;;
23155;SDS011;11746;50.876;4.246;2022-12-08T07:06:28;20.67;;;11.68;;
23155;SDS011;11746;50.876;4.246;2022-12-08T07:08:54;24.13;;;12.60;;
23155;SDS011;11746;50.876;4.246;2022-12-08T07:11:20;21.05;;;12.90;;
23155;SDS011;11746;50.876;4.246;2022-12-08T07:13:49;19.33;;;11.65;;
23155;SDS011;11746;50.876;4.246;2022-12-08T07:16:15;22.73;;;12.23;;
23155;SDS011;11746;50.876;4.246;2022-12-08T07:18:41;23.63;;;12.57;;
23155;SDS011;11746;50.876;4.246;2022-12-08T07:21:08;21.85;;;12.32;;
23155;SDS011;11746;50.876;4.246;2022-12-08T07:23:37;18.08;;;11.52;;
23155;SDS011;11746;50.876;4.246;2022-12-08T07:26:06;24.58;;;13.02;;
23155;SDS011;11746;50.876;4.246;2022-12-08T07:28:37;25.02;;;13.50;;
23155;SDS011;11746;50.876;4.246;2022-12-08T07:31:04;19.83;;;12.43;;
23155;SDS011;11746;50.876;4.246;2022-12-08T07:33:31;23.35;;;12.75;;
23155;SDS011;11746;50.876;4.246;2022-12-08T07:35:59;19.52;;;12.27;;
23155;SDS011;11746;50.876;4.246;2022-12-08T07:38:27;24.10;;;12.85;;
23155;SDS011;11746;50.876;4.246;2022-12-08T07:40:53;22.80;;;13.25;;
23155;SDS011;11746;50.876;4.246;2022-12-08T07:43:22;19.80;;;12.40;;
23155;SDS011;11746;50.876;4.246;2022-12-08T07:45:48;20.80;;;12.63;;
23155;SDS011;11746;50.876;4.246;2022-12-08T07:48:14;23.60;;;13.38;;
23155;SDS011;11746;50.876;4.246;2022-12-08T07:50:40;23.35;;;13.05;;
23155;SDS011;11746;50.876;4.246;2022-12-08T07:53:09;22.17;;;11.75;;
23155;SDS011;11746;50.876;4.246;2022-12-08T07:55:38;18.58;;;12.68;;
23155;SDS011;11746;50.876;4.246;2022-12-08T07:58:04;19.35;;;12.85;;
23155;SDS011;11746;50.876;4.246;2022-12-08T08:00:33;24.92;;;13.57;;
23155;SDS011;11746;50.876;4.246;2022-12-08T08:03:01;21.38;;;12.00;;
23155;SDS011;11746;50.876;4.246;2022-12-08T08:05:27;22.08;;;12.45;;
23155;SDS011;11746;50.876;4.246;2022-12-08T08:07:52;20.40;;;12.40;;
23155;SDS011;11746;50.876;4.246;2022-12-08T08:10:18;20.25;;;13.20;;
23155;SDS011;11746;50.876;4.246;2022-12-08T08:12:46;21.60;;;12.73;;
23155;SDS011;11746;50.876;4.246;2022-12-08T08:15:12;22.40;;;12.95;;
23155;SDS011;11746;50.876;4.246;2022-12-08T08:17:38;22.67;;;13.60;;
23155;SDS011;11746;50.876;4.246;2022-12-08T08:20:04;22.02;;;13.30;;
23155;SDS011;11746;50.876;4.246;2022-12-08T08:22:31;22.17;;;13.40;;
23155;SDS011;11746;50.876;4.246;2022-12-08T08:24:59;30.13;;;15.10;;
23155;SDS011;11746;50.876;4.246;2022-12-08T08:27:27;26.80;;;14.38;;
23155;SDS011;11746;50.876;4.246;2022-12-08T08:29:55;27.73;;;14.63;;
23155;SDS011;11746;50.876;4.246;2022-12-08T08:32:21;27.42;;;14.88;;
23155;SDS011;11746;50.876;4.246;2022-12-08T08:34:47;27.48;;;15.82;;
23155;SDS011;11746;50.876;4.246;2022-12-08T08:37:13;24.05;;;15.02;;
23155;SDS011;11746;50.876;4.246;2022-12-08T08:39:39;30.08;;;15.25;;
23155;SDS011;11746;50.876;4.246;2022-12-08T08:42:04;27.95;;;15.30;;
23155;SDS011;11746;50.876;4.246;2022-12-08T08:44:30;24.00;;;14.13;;
23155;SDS011;11746;50.876;4.246;2022-12-08T08:46:56;27.92;;;15.23;;
23155;SDS011;11746;50.876;4.246;2022-12-08T08:49:24;30.60;;;15.48;;
23155;SDS011;11746;50.876;4.246;2022-12-08T08:51:53;29.17;;;15.15;;
23155;SDS011;11746;50.876;4.246;2022-12-08T08:54:21;28.23;;;14.77;;
23155;SDS011;11746;50.876;4.246;2022-12-08T08:56:47;27.95;;;15.48;;
23155;SDS011;11746;50.876;4.246;2022-12-08T08:59:12;24.65;;;15.00;;
23155;SDS011;11746;50.876;4.246;2022-12-08T09:01:38;27.70;;;15.82;;
23155;SDS011;11746;50.876;4.246;2022-12-08T09:04:04;27.63;;;15.27;;
23155;SDS011;11746;50.876;4.246;2022-12-08T09:06:29;31.17;;;16.38;;
23155;SDS011;11746;50.876;4.246;2022-12-08T09:08:56;32.47;;;17.00;;
23155;SDS011;11746;50.876;4.246;2022-12-08T09:11:21;35.88;;;15.73;;
23155;SDS011;11746;50.876;4.246;2022-12-08T09:13:48;32.08;;;16.58;;
23155;SDS011;11746;50.876;4.246;2022-12-08T09:16:15;30.60;;;16.20;;
23155;SDS011;11746;50.876;4.246;2022-12-08T09:18:40;33.17;;;16.95;;
23155;SDS011;11746;50.876;4.246;2022-12-08T09:21:11;29.67;;;17.15;;
23155;SDS011;11746;50.876;4.246;2022-12-08T09:23:40;33.22;;;17.10;;
23155;SDS011;11746;50.876;4.246;2022-12-08T09:26:09;24.98;;;15.80;;
23155;SDS011;11746;50.876;4.246;2022-12-08T09:28:35;35.90;;;16.88;;
23155;SDS011;11746;50.876;4.246;2022-12-08T09:31:03;33.83;;;16.33;;
23155;SDS011;11746;50.876;4.246;2022-12-08T09:33:30;30.95;;;16.25;;
23155;SDS011;11746;50.876;4.246;2022-12-08T09:36:01;30.17;;;15.95;;
23155;SDS011;11746;50.876;4.246;2022-12-08T09:38:30;31.17;;;16.05;;
23155;SDS011;11746;50.876;4.246;2022-12-08T09:40:56;28.35;;;15.57;;
23155;SDS011;11746;50.876;4.246;2022-12-08T09:46:15;30.73;;;15.52;;
23155;SDS011;11746;50.876;4.246;2022-12-08T09:49:01;27.83;;;14.95;;
23155;SDS011;11746;50.876;4.246;2022-12-08T09:51:32;26.55;;;15.32;;
23155;SDS011;11746;50.876;4.246;2022-12-08T09:54:09;32.42;;;16.38;;
23155;SDS011;11746;50.876;4.246;2022-12-08T09:57:11;33.13;;;15.73;;
23155;SDS011;11746;50.876;4.246;2022-12-08T09:59:40;26.75;;;15.05;;
23155;SDS011;11746;50.876;4.246;2022-12-08T10:02:18;31.52;;;15.38;;
23155;SDS011;11746;50.876;4.246;2022-12-08T10:04:48;27.25;;;15.00;;
23155;SDS011;11746;50.876;4.246;2022-12-08T10:07:36;33.00;;;14.65;;
23155;SDS011;11746;50.876;4.246;2022-12-08T10:13:12;28.07;;;14.33;;
23155;SDS011;11746;50.876;4.246;2022-12-08T10:18:31;27.13;;;13.93;;
23155;SDS011;11746;50.876;4.246;2022-12-08T10:21:09;27.35;;;14.10;;
23155;SDS011;11746;50.876;4.246;2022-12-08T10:23:41;30.52;;;14.68;;
23155;SDS011;11746;50.876;4.246;2022-12-08T10:26:16;29.05;;;14.90;;
23155;SDS011;11746;50.876;4.246;2022-12-08T10:28:47;30.20;;;13.95;;
23155;SDS011;11746;50.876;4.246;2022-12-08T10:31:20;27.25;;;14.27;;
23155;SDS011;11746;50.876;4.246;2022-12-08T10:33:57;25.67;;;13.82;;
23155;SDS011;11746;50.876;4.246;2022-12-08T10:42:18;23.23;;;12.45;;
23155;SDS011;11746;50.876;4.246;2022-12-08T10:47:29;26.55;;;12.90;;
23155;SDS011;11746;50.876;4.246;2022-12-08T10:53:30;26.20;;;12.45;;
23155;SDS011;11746;50.876;4.246;2022-12-08T10:55:46;23.45;;;12.40;;
23155;SDS011;11746;50.876;4.246;2022-12-08T11:00:52;28.27;;;13.57;;
23155;SDS011;11746;50.876;4.246;2022-12-08T11:03:22;24.73;;;13.75;;
23155;SDS011;11746;50.876;4.246;2022-12-08T11:05:55;26.83;;;13.57;;
23155;SDS011;11746;50.876;4.246;2022-12-08T11:08:26;18.95;;;10.52;;
23155;SDS011;11746;50.876;4.246;2022-12-08T11:10:53;20.00;;;11.20;;
23155;SDS011;11746;50.876;4.246;2022-12-08T11:13:25;19.88;;;10.95;;
23155;SDS011;11746;50.876;4.246;2022-12-08T11:15:55;21.88;;;10.73;;
23155;SDS011;11746;50.876;4.246;2022-12-08T11:18:28;22.15;;;11.00;;
23155;SDS011;11746;50.876;4.246;2022-12-08T11:21:09;23.13;;;10.70;;
23155;SDS011;11746;50.876;4.246;2022-12-08T11:23:42;22.52;;;10.68;;
23155;SDS011;11746;50.876;4.246;2022-12-08T11:26:33;19.92;;;10.63;;
23155;SDS011;11746;50.876;4.246;2022-12-08T11:28:59;19.85;;;11.30;;
23155;SDS011;11746;50.876;4.246;2022-12-08T11:31:37;18.98;;;9.98;;
23155;SDS011;11746;50.876;4.246;2022-12-08T11:34:08;18.65;;;10.45;;
23155;SDS011;11746;50.876;4.246;2022-12-08T11:37:01;22.48;;;10.68;;
23155;SDS011;11746;50.876;4.246;2022-12-08T11:39:31;18.83;;;9.63;;
23155;SDS011;11746;50.876;4.246;2022-12-08T11:44:45;23.05;;;10.48;;
23155;SDS011;11746;50.876;4.246;2022-12-08T11:50:18;17.02;;;9.63;;
23155;SDS011;11746;50.876;4.246;2022-12-08T11:52:51;16.98;;;9.93;;
23155;SDS011;11746;50.876;4.246;2022-12-08T11:58:15;14.77;;;8.52;;
23155;SDS011;11746;50.876;4.246;2022-12-08T12:00:42;12.63;;;8.85;;
23155;SDS011;11746;50.876;4.246;2022-12-08T12:03:18;15.98;;;8.35;;
23155;SDS011;11746;50.876;4.246;2022-12-08T12:06:16;18.30;;;8.85;;
23155;SDS011;11746;50.876;4.246;2022-12-08T12:17:04;14.60;;;8.30;;
23155;SDS011;11746;50.876;4.246;2022-12-08T12:19:42;13.88;;;8.27;;
23155;SDS011;11746;50.876;4.246;2022-12-08T12:22:13;16.27;;;8.32;;
23155;SDS011;11746;50.876;4.246;2022-12-08T12:24:42;16.85;;;8.63;;
23155;SDS011;11746;50.876;4.246;2022-12-08T12:29:46;14.85;;;8.75;;
23155;SDS011;11746;50.876;4.246;2022-12-08T12:32:17;15.80;;;7.55;;
23155;SDS011;11746;50.876;4.246;2022-12-08T12:34:56;15.80;;;8.13;;
23155;SDS011;11746;50.876;4.246;2022-12-08T12:42:39;12.20;;;7.32;;
23155;SDS011;11746;50.876;4.246;2022-12-08T12:47:50;11.45;;;6.65;;
23155;SDS011;11746;50.876;4.246;2022-12-08T12:53:45;12.63;;;6.20;;
23155;SDS011;11746;50.876;4.246;2022-12-08T12:55:57;12.60;;;6.13;;
23155;SDS011;11746;50.876;4.246;2022-12-08T13:03:48;13.60;;;5.72;;
23155;SDS011;11746;50.876;4.246;2022-12-08T13:06:38;9.90;;;5.60;;
23155;SDS011;11746;50.876;4.246;2022-12-08T13:09:17;8.73;;;5.60;;
23155;SDS011;11746;50.876;4.246;2022-12-08T13:12:07;10.15;;;5.40;;
23155;SDS011;11746;50.876;4.246;2022-12-08T13:14:36;8.82;;;4.78;;
23155;SDS011;11746;50.876;4.246;2022-12-08T13:17:12;10.65;;;5.28;;
23155;SDS011;11746;50.876;4.246;2022-12-08T13:19:43;9.48;;;5.40;;
23155;SDS011;11746;50.876;4.246;2022-12-08T13:30:58;12.65;;;5.32;;
23155;SDS011;11746;50.876;4.246;2022-12-08T13:33:29;9.77;;;5.50;;
23155;SDS011;11746;50.876;4.246;2022-12-08T13:36:25;10.23;;;5.15;;
23155;SDS011;11746;50.876;4.246;2022-12-08T13:38:56;9.05;;;5.18;;
23155;SDS011;11746;50.876;4.246;2022-12-08T13:41:48;10.15;;;5.43;;
23155;SDS011;11746;50.876;4.246;2022-12-08T13:44:25;10.45;;;5.78;;
23155;SDS011;11746;50.876;4.246;2022-12-08T13:47:13;9.95;;;5.57;;
23155;SDS011;11746;50.876;4.246;2022-12-08T13:49:53;14.15;;;5.47;;
23155;SDS011;11746;50.876;4.246;2022-12-08T13:55:28;8.90;;;5.13;;
23155;SDS011;11746;50.876;4.246;2022-12-08T13:58:10;9.35;;;5.55;;
23155;SDS011;11746;50.876;4.246;2022-12-08T14:00:41;12.73;;;6.45;;
23155;SDS011;11746;50.876;4.246;2022-12-08T14:03:07;4.97;;;2.90;;
23155;SDS011;11746;50.876;4.246;2022-12-08T14:05:40;5.18;;;2.70;;
23155;SDS011;11746;50.876;4.246;2022-12-08T14:08:14;3.22;;;2.58;;
23155;SDS011;11746;50.876;4.246;2022-12-08T14:10:51;4.28;;;3.47;;
23155;SDS011;11746;50.876;4.246;2022-12-08T14:13:24;5.35;;;4.22;;
23155;SDS011;11746;50.876;4.246;2022-12-08T14:15:49;7.95;;;5.07;;
23155;SDS011;11746;50.876;4.246;2022-12-08T14:18:22;11.02;;;5.82;;
23155;SDS011;11746;50.876;4.246;2022-12-08T14:21:01;9.90;;;5.63;;
23155;SDS011;11746;50.876;4.246;2022-12-08T14:23:33;5.43;;;4.53;;
23155;SDS011;11746;50.876;4.246;2022-12-08T14:26:00;6.57;;;4.15;;
23155;SDS011;11746;50.876;4.246;2022-12-08T14:28:30;6.38;;;4.35;;
23155;SDS011;11746;50.876;4.246;2022-12-08T14:30:57;6.30;;;4.25;;
23155;SDS011;11746;50.876;4.246;2022-12-08T14:33:25;7.72;;;5.25;;
23155;SDS011;11746;50.876;4.246;2022-12-08T14:35:52;6.70;;;4.93;;
23155;SDS011;11746;50.876;4.246;2022-12-08T14:38:20;9.40;;;5.13;;
23155;SDS011;11746;50.876;4.246;2022-12-08T14:41:04;6.00;;;4.30;;
23155;SDS011;11746;50.876;4.246;2022-12-08T14:43:31;5.78;;;4.47;;
23155;SDS011;11746;50.876;4.246;2022-12-08T14:46:04;5.88;;;4.30;;
23155;SDS011;11746;50.876;4.246;2022-12-08T14:48:46;6.38;;;3.72;;
23155;SDS011;11746;50.876;4.246;2022-12-08T14:53:46;7.13;;;4.07;;
23155;SDS011;11746;50.876;4.246;2022-12-08T14:56:37;7.68;;;4.45;;
23155;SDS011;11746;50.876;4.246;2022-12-08T15:01:34;9.48;;;5.72;;
23155;SDS011;11746;50.876;4.246;2022-12-08T15:04:08;7.43;;;4.68;;
23155;SDS011;11746;50.876;4.246;2022-12-08T15:06:37;7.07;;;4.78;;
23155;SDS011;11746;50.876;4.246;2022-12-08T15:15:00;7.05;;;4.50;;
23155;SDS011;11746;50.876;4.246;2022-12-08T15:17:48;7.68;;;4.70;;
23155;SDS011;11746;50.876;4.246;2022-12-08T15:23:02;4.57;;;3.53;;
23155;SDS011;11746;50.876;4.246;2022-12-08T15:25:29;6.50;;;4.40;;
23155;SDS011;11746;50.876;4.246;2022-12-08T15:27:56;7.50;;;4.97;;
23155;SDS011;11746;50.876;4.246;2022-12-08T15:30:22;7.32;;;4.85;;
23155;SDS011;11746;50.876;4.246;2022-12-08T15:32:50;6.07;;;4.82;;
23155;SDS011;11746;50.876;4.246;2022-12-08T15:35:20;7.45;;;4.72;;
23155;SDS011;11746;50.876;4.246;2022-12-08T15:37:46;7.82;;;5.18;;
23155;SDS011;11746;50.876;4.246;2022-12-08T15:40:19;8.80;;;5.25;;
23155;SDS011;11746;50.876;4.246;2022-12-08T15:42:46;9.40;;;5.18;;
23155;SDS011;11746;50.876;4.246;2022-12-08T15:45:14;8.48;;;5.43;;
23155;SDS011;11746;50.876;4.246;2022-12-08T15:47:41;7.40;;;5.53;;
23155;SDS011;11746;50.876;4.246;2022-12-08T15:50:16;8.52;;;5.70;;
23155;SDS011;11746;50.876;4.246;2022-12-08T15:52:44;7.38;;;5.60;;
23155;SDS011;11746;50.876;4.246;2022-12-08T15:55:14;9.45;;;5.68;;
23155;SDS011;11746;50.876;4.246;2022-12-08T15:57:42;7.40;;;5.50;;
23155;SDS011;11746;50.876;4.246;2022-12-08T16:02:50;7.55;;;5.18;;
23155;SDS011;11746;50.876;4.246;2022-12-08T16:05:15;9.05;;;4.75;;
23155;SDS011;11746;50.876;4.246;2022-12-08T16:07:41;7.07;;;4.88;;
23155;SDS011;11746;50.876;4.246;2022-12-08T16:10:09;6.18;;;4.55;;
23155;SDS011;11746;50.876;4.246;2022-12-08T16:12:46;7.82;;;4.55;;
23155;SDS011;11746;50.876;4.246;2022-12-08T16:17:59;7.30;;;4.28;;
23155;SDS011;11746;50.876;4.246;2022-12-08T16:20:25;7.55;;;4.32;;
23155;SDS011;11746;50.876;4.246;2022-12-08T16:22:51;7.70;;;4.10;;
23155;SDS011;11746;50.876;4.246;2022-12-08T16:25:17;5.22;;;4.00;;
23155;SDS011;11746;50.876;4.246;2022-12-08T16:27:47;7.10;;;4.60;;
23155;SDS011;11746;50.876;4.246;2022-12-08T16:30:17;7.20;;;4.80;;
23155;SDS011;11746;50.876;4.246;2022-12-08T16:32:44;6.72;;;4.90;;
23155;SDS011;11746;50.876;4.246;2022-12-08T16:35:10;9.77;;;5.00;;
23155;SDS011;11746;50.876;4.246;2022-12-08T16:37:36;6.78;;;5.05;;
23155;SDS011;11746;50.876;4.246;2022-12-08T16:40:03;5.80;;;4.75;;
23155;SDS011;11746;50.876;4.246;2022-12-08T16:42:33;7.68;;;5.32;;
23155;SDS011;11746;50.876;4.246;2022-12-08T16:45:20;8.00;;;6.30;;